首页
METAR-TAF:

METAR-TAF

机场 :

Stuttgart Municipal Airport

斯图加特, 阿肯色州, 美国

纬度: 34-36N, 经度: 091-34W, 海拔: 68米

当前天气观测

该预报发布于17分钟前的21:56 UTC
风速6节,风向南转南东
温度 9°C
湿度 40%
气压 1033 hPa
能見度: 16.1公里
天空无云
小雨

METAR: KSGT 112156Z AUTO 15006KT 10SM -RA CLR 09/M04 A3051 RMK AO2 RAB37 SLP335 P0000 T00941039

时间: 16:13 (22:13 UTC)


TAF: 丢失

超过4000个机场的气象观测和天气预报(METAR&TAF报告)。

可查询的气象台以黄色和红色小点在地图上表示。

将鼠标移到小点上方,可查看气象台名称。

然后点击查看天气观测和预报。

如需切换地图:点击带黑十字的绿色按钮放大地图;点击带横线的绿色按钮缩小地图;或者点击绿色箭头查看邻近地区的地图。


METAR-TAF: